LHPR/QGY METAR and TAF weather

Enter ICAO airport designator
Station Type Date Time Source
LHPR METAR 2019/10/15 21:15 UTC NOAA

LHPR 152115Z AUTO 14008KT CAVOK 14/11 Q1012


Station Type Date Time Source
LHPR Decoded METAR 2019/10/15 21:15 UTC NOAA

Station name not available
Oct 15, 2019 - 05:15 PM EDT / 2019.10.15 2115 UTC
Wind: from the SE (140 degrees) at 9 MPH (8 KT):0
Visibility: greater than 7 mile(s):0
Temperature: 57 F (14 C)
Dew Point: 51 F (11 C)
Relative Humidity: 82%
Pressure (altimeter): 29.88 in. Hg (1012 hPa)
ob: LHPR 152115Z AUTO 14008KT CAVOK 14/11 Q1012
cycle: 21

Station Type Date Time Source
LHPR TAF UTC NOAA

Error!

Example: see airport list